Time;durP1;ratioP1;P1;durP2;ratioP2;P2;SDS_P1;SDS_P2;PMS_P1;PMS_P2;Temp;Humidity;BMP_temperature;BMP_pressure;BME280_temperature;BME280_humidity;BME280_pressure;Samples;Min_cycle;Max_cycle;Signal;HPM_P1;HPM_P2
2023/04/12 00:00:28;;;;;;;5.78;3.20;;;;;;;;;;5083113;28;20330;-68
2023/04/12 00:02:55;;;;;;;5.07;2.83;;;;;;;;;;5082388;28;20197;-68
2023/04/12 00:05:21;;;;;;;5.82;3.40;;;;;;;;;;5082792;28;20538;-68
2023/04/12 00:07:48;;;;;;;6.15;3.25;;;;;;;;;;5082833;28;20257;-68
2023/04/12 00:10:14;;;;;;;6.97;3.30;;;;;;;;;;5082590;28;20198;-68
2023/04/12 00:12:41;;;;;;;9.80;3.53;;;;;;;;;;5082198;28;20197;-68
2023/04/12 00:15:09;;;;;;;6.72;3.10;;;;;;;;;;5082476;28;20204;-68
2023/04/12 00:17:35;;;;;;;6.35;3.10;;;;;;;;;;5082570;28;20362;-68
2023/04/12 00:20:04;;;;;;;5.00;3.25;;;;;;;;;;5082674;28;20196;-68
2023/04/12 00:22:31;;;;;;;8.55;3.50;;;;;;;;;;5082362;28;20203;-68
2023/04/12 00:24:57;;;;;;;5.55;3.28;;;;;;;;;;5082538;28;20242;-68
2023/04/12 00:27:24;;;;;;;5.80;3.45;;;;;;;;;;5082181;28;20224;-68
2023/04/12 00:29:50;;;;;;;4.32;3.15;;;;;;;;;;5082549;28;20196;-68
2023/04/12 00:32:18;;;;;;;7.85;3.08;;;;;;;;;;5082467;28;20543;-68
2023/04/12 00:34:45;;;;;;;5.47;3.38;;;;;;;;;;5082514;28;20558;-68
2023/04/12 00:37:11;;;;;;;5.35;2.70;;;;;;;;;;5082297;28;20192;-68
2023/04/12 00:39:37;;;;;;;4.40;2.60;;;;;;;;;;5082315;28;20250;-68
2023/04/12 00:42:04;;;;;;;6.10;2.95;;;;;;;;;;5081890;28;20294;-68
2023/04/12 00:44:31;;;;;;;5.00;2.92;;;;;;;;;;5082302;28;20197;-68
2023/04/12 00:46:58;;;;;;;6.25;3.08;;;;;;;;;;5082251;28;20235;-68
2023/04/12 00:49:29;;;;;;;5.43;2.95;;;;;;;;;;5082386;28;20338;-68
2023/04/12 00:51:56;;;;;;;3.80;2.80;;;;;;;;;;5081995;28;20200;-68
2023/04/12 00:54:24;;;;;;;4.70;2.67;;;;;;;;;;5081997;28;20196;-68
2023/04/12 00:56:51;;;;;;;6.65;2.85;;;;;;;;;;5082500;28;20235;-68
2023/04/12 00:59:17;;;;;;;4.32;3.03;;;;;;;;;;5082557;28;20239;-68
2023/04/12 01:01:44;;;;;;;5.80;2.90;;;;;;;;;;5082277;28;20234;-66
2023/04/12 01:04:12;;;;;;;6.82;3.15;;;;;;;;;;5082194;28;20220;-67
2023/04/12 01:06:47;;;;;;;5.55;2.80;;;;;;;;;;5082027;28;20408;-67
2023/04/12 01:09:19;;;;;;;6.38;3.00;;;;;;;;;;5082587;28;20438;-67
2023/04/12 01:11:51;;;;;;;4.28;2.88;;;;;;;;;;5082014;28;20196;-67
2023/04/12 01:14:22;;;;;;;3.95;2.55;;;;;;;;;;5082706;28;20204;-67
2023/04/12 01:16:50;;;;;;;3.70;2.40;;;;;;;;;;5086369;28;20196;-67
2023/04/12 01:19:27;;;;;;;4.22;2.63;;;;;;;;;;5086158;28;20208;-67
2023/04/12 01:22:06;;;;;;;4.93;3.00;;;;;;;;;;5086146;28;20196;-67
2023/04/12 01:24:37;;;;;;;4.60;2.50;;;;;;;;;;5086003;28;20231;-67
2023/04/12 01:27:10;;;;;;;4.03;2.50;;;;;;;;;;5085845;28;20595;-67
2023/04/12 01:29:38;;;;;;;5.32;2.60;;;;;;;;;;5085984;28;20499;-67
2023/04/12 01:32:05;;;;;;;4.47;2.70;;;;;;;;;;5085574;28;20196;-67
2023/04/12 01:34:33;;;;;;;6.22;2.80;;;;;;;;;;5085865;28;20196;-67
2023/04/12 01:37:01;;;;;;;3.63;2.70;;;;;;;;;;5085675;28;20192;-67
2023/04/12 01:39:29;;;;;;;3.92;2.78;;;;;;;;;;5085710;28;20430;-67
2023/04/12 01:41:56;;;;;;;3.28;2.45;;;;;;;;;;5085827;28;20282;-67
2023/04/12 01:44:22;;;;;;;4.70;2.92;;;;;;;;;;5085411;28;20268;-67
2023/04/12 01:46:50;;;;;;;3.80;2.80;;;;;;;;;;5085405;28;20365;-67
2023/04/12 01:49:17;;;;;;;3.90;2.97;;;;;;;;;;5085591;28;20215;-67
2023/04/12 01:51:48;;;;;;;6.40;2.88;;;;;;;;;;5085245;28;20267;-67
2023/04/12 01:54:17;;;;;;;3.83;2.97;;;;;;;;;;5085270;28;20196;-67
2023/04/12 01:56:46;;;;;;;5.82;3.00;;;;;;;;;;5085232;28;20199;-67
2023/04/12 01:59:13;;;;;;;5.25;3.17;;;;;;;;;;5085143;28;20196;-67
2023/04/12 02:01:40;;;;;;;5.97;2.90;;;;;;;;;;5084665;28;20203;-67
2023/04/12 02:04:08;;;;;;;2.78;2.55;;;;;;;;;;5085270;28;20197;-67
2023/04/12 02:06:34;;;;;;;2.88;2.60;;;;;;;;;;5084984;28;20258;-67
2023/04/12 02:09:01;;;;;;;3.13;2.78;;;;;;;;;;5084893;28;20192;-67
2023/04/12 02:11:28;;;;;;;6.38;3.35;;;;;;;;;;5084899;28;20203;-67
2023/04/12 02:13:54;;;;;;;3.55;2.75;;;;;;;;;;5084773;28;20204;-67
2023/04/12 02:16:21;;;;;;;5.55;2.75;;;;;;;;;;5084894;28;20238;-67
2023/04/12 02:18:48;;;;;;;4.40;2.90;;;;;;;;;;5084856;28;20211;-67
2023/04/12 02:21:15;;;;;;;4.25;2.75;;;;;;;;;;5084570;28;20239;-67
2023/04/12 02:23:42;;;;;;;2.92;2.60;;;;;;;;;;5084885;28;20196;-67
2023/04/12 02:26:09;;;;;;;6.38;3.08;;;;;;;;;;5084402;28;20221;-67
2023/04/12 02:28:36;;;;;;;4.20;3.03;;;;;;;;;;5084689;28;20543;-67
2023/04/12 02:31:02;;;;;;;4.68;2.80;;;;;;;;;;5084427;28;20196;-67
2023/04/12 02:33:29;;;;;;;2.88;2.63;;;;;;;;;;5084449;28;20204;-67
2023/04/12 02:35:56;;;;;;;6.70;3.05;;;;;;;;;;5084434;28;20220;-67
2023/04/12 02:38:23;;;;;;;4.38;2.65;;;;;;;;;;5084569;28;20422;-67
2023/04/12 02:40:49;;;;;;;3.13;2.50;;;;;;;;;;5084520;28;20376;-67
2023/04/12 02:43:16;;;;;;;2.83;2.58;;;;;;;;;;5084448;28;20257;-67
2023/04/12 02:45:42;;;;;;;4.07;2.65;;;;;;;;;;5084316;28;20423;-67
2023/04/12 02:48:08;;;;;;;7.47;2.55;;;;;;;;;;5084051;28;20266;-67
2023/04/12 02:50:35;;;;;;;5.03;2.50;;;;;;;;;;5084686;28;20200;-67
2023/04/12 02:53:01;;;;;;;5.85;2.70;;;;;;;;;;5084061;28;20200;-67
2023/04/12 02:55:29;;;;;;;5.68;2.33;;;;;;;;;;5084126;28;20200;-67
2023/04/12 02:57:56;;;;;;;4.10;2.45;;;;;;;;;;5084178;28;20423;-67
2023/04/12 03:00:22;;;;;;;5.70;2.70;;;;;;;;;;5083988;28;20203;-67
2023/04/12 03:02:50;;;;;;;4.35;2.10;;;;;;;;;;5083805;28;20204;-67
2023/04/12 03:05:16;;;;;;;8.23;2.35;;;;;;;;;;5084317;28;20349;-67
2023/04/12 03:07:43;;;;;;;6.22;2.60;;;;;;;;;;5083986;28;20287;-67
2023/04/12 03:10:10;;;;;;;6.18;2.42;;;;;;;;;;5083798;28;20419;-67
2023/04/12 03:12:37;;;;;;;14.50;8.32;;;;;;;;;;5083563;28;20231;-67
2023/04/12 03:15:04;;;;;;;9.00;4.18;;;;;;;;;;5084027;28;20228;-67
2023/04/12 03:17:30;;;;;;;7.72;4.10;;;;;;;;;;5084027;28;20200;-67
2023/04/12 03:20:02;;;;;;;3.50;2.78;;;;;;;;;;5083935;28;20208;-67
2023/04/12 03:22:29;;;;;;;2.80;2.20;;;;;;;;;;5083600;28;20196;-67
2023/04/12 03:24:56;;;;;;;6.18;2.90;;;;;;;;;;5083738;28;20421;-67
2023/04/12 03:27:22;;;;;;;3.58;2.00;;;;;;;;;;5083528;28;20578;-67
2023/04/12 03:29:51;;;;;;;1.73;1.50;;;;;;;;;;5083343;28;20203;-67
2023/04/12 03:32:17;;;;;;;2.00;1.73;;;;;;;;;;5083561;28;20275;-67
2023/04/12 03:34:44;;;;;;;2.58;1.65;;;;;;;;;;5083552;28;20197;-67
2023/04/12 03:37:10;;;;;;;2.95;2.00;;;;;;;;;;5082714;28;20193;-67
2023/04/12 03:39:37;;;;;;;3.13;1.83;;;;;;;;;;5083424;28;20500;-67
2023/04/12 03:42:03;;;;;;;2.08;1.80;;;;;;;;;;5083073;28;20223;-67
2023/04/12 03:44:29;;;;;;;3.85;2.00;;;;;;;;;;5083054;28;20204;-67
2023/04/12 03:46:57;;;;;;;5.93;2.28;;;;;;;;;;5083320;28;20231;-67
2023/04/12 03:49:23;;;;;;;5.57;2.30;;;;;;;;;;5083153;28;20196;-67
2023/04/12 03:51:50;;;;;;;2.47;2.15;;;;;;;;;;5082880;28;20529;-67
2023/04/12 03:54:16;;;;;;;2.80;2.28;;;;;;;;;;5083396;28;20234;-67
2023/04/12 03:56:43;;;;;;;2.13;1.95;;;;;;;;;;5082912;28;20210;-67
2023/04/12 03:59:09;;;;;;;5.18;2.40;;;;;;;;;;5082721;28;20203;-67
2023/04/12 04:01:35;;;;;;;4.57;2.08;;;;;;;;;;5082639;28;20196;-67
2023/04/12 04:04:04;;;;;;;2.38;2.15;;;;;;;;;;5082950;28;20193;-67
2023/04/12 04:06:30;;;;;;;2.80;2.55;;;;;;;;;;5082565;28;20271;-67
2023/04/12 04:08:56;;;;;;;2.33;2.13;;;;;;;;;;5082690;28;20196;-67
2023/04/12 04:11:23;;;;;;;4.57;2.30;;;;;;;;;;5082469;28;20482;-67
2023/04/12 04:13:49;;;;;;;2.63;2.15;;;;;;;;;;5082474;28;20204;-67
2023/04/12 04:16:16;;;;;;;2.30;2.10;;;;;;;;;;5082507;28;20200;-67
2023/04/12 04:18:43;;;;;;;3.58;2.17;;;;;;;;;;5082698;28;20204;-67
2023/04/12 04:21:10;;;;;;;4.07;2.65;;;;;;;;;;5082238;28;20204;-68
2023/04/12 04:23:38;;;;;;;5.40;2.88;;;;;;;;;;5082412;28;20207;-68
2023/04/12 04:26:05;;;;;;;5.75;2.97;;;;;;;;;;5082395;28;20504;-67
2023/04/12 04:28:32;;;;;;;5.13;2.88;;;;;;;;;;5082305;28;20455;-67
2023/04/12 04:31:02;;;;;;;5.80;3.20;;;;;;;;;;5082388;28;20457;-67
2023/04/12 04:33:29;;;;;;;6.72;3.22;;;;;;;;;;5082478;28;20252;-67
2023/04/12 04:35:56;;;;;;;3.20;2.50;;;;;;;;;;5082443;28;20196;-67
2023/04/12 04:38:24;;;;;;;3.75;2.10;;;;;;;;;;5082045;28;20193;-68
2023/04/12 04:40:52;;;;;;;2.50;2.40;;;;;;;;;;5082426;28;20219;-68
2023/04/12 04:43:19;;;;;;;2.10;1.95;;;;;;;;;;5082265;28;20230;-67
2023/04/12 04:45:47;;;;;;;2.97;1.90;;;;;;;;;;5082250;28;20196;-67
2023/04/12 04:48:13;;;;;;;3.42;2.00;;;;;;;;;;5082088;28;20220;-67
2023/04/12 04:50:39;;;;;;;2.42;2.22;;;;;;;;;;5082043;28;20196;-67
2023/04/12 04:53:05;;;;;;;4.28;2.30;;;;;;;;;;5081858;28;20372;-67
2023/04/12 04:55:33;;;;;;;5.80;2.60;;;;;;;;;;5082260;28;20207;-67
2023/04/12 04:57:59;;;;;;;2.38;2.17;;;;;;;;;;5082170;28;20199;-67
2023/04/12 05:00:26;;;;;;;2.28;1.85;;;;;;;;;;5082102;28;20208;-67
2023/04/12 05:02:52;;;;;;;2.30;1.90;;;;;;;;;;5081993;28;20196;-67
2023/04/12 05:05:22;;;;;;;16.25;10.60;;;;;;;;;;5081914;28;20206;-67
2023/04/12 05:07:48;;;;;;;3.08;2.78;;;;;;;;;;5081598;28;20223;-67
2023/04/12 05:10:15;;;;;;;2.88;1.75;;;;;;;;;;5081844;28;20203;-67
2023/04/12 05:12:42;;;;;;;3.08;1.63;;;;;;;;;;5081528;28;20230;-68
2023/04/12 05:15:10;;;;;;;5.35;1.98;;;;;;;;;;5081785;28;20206;-67
2023/04/12 05:17:36;;;;;;;3.40;2.33;;;;;;;;;;5081856;28;20520;-67
2023/04/12 05:20:05;;;;;;;2.53;2.10;;;;;;;;;;5081488;28;20425;-67
2023/04/12 05:22:31;;;;;;;4.20;2.40;;;;;;;;;;5081608;28;20197;-67
2023/04/12 05:24:57;;;;;;;2.75;2.45;;;;;;;;;;5081612;28;20224;-67
2023/04/12 05:27:25;;;;;;;2.88;2.40;;;;;;;;;;5081467;28;20229;-68
2023/04/12 05:29:52;;;;;;;2.70;1.98;;;;;;;;;;5081780;28;20200;-67
2023/04/12 05:32:19;;;;;;;2.97;2.50;;;;;;;;;;5081318;28;20519;-67
2023/04/12 05:34:45;;;;;;;4.05;2.72;;;;;;;;;;5081420;28;20234;-67
2023/04/12 05:37:12;;;;;;;2.50;2.30;;;;;;;;;;5081823;28;20203;-67
2023/04/12 05:39:38;;;;;;;3.75;2.58;;;;;;;;;;5081716;28;20204;-67
2023/04/12 05:42:05;;;;;;;2.45;2.25;;;;;;;;;;5081504;28;20296;-67
2023/04/12 05:44:31;;;;;;;2.08;1.98;;;;;;;;;;5081802;28;20204;-67
2023/04/12 05:46:59;;;;;;;5.95;2.60;;;;;;;;;;5081380;28;20203;-67
2023/04/12 05:49:28;;;;;;;5.03;2.55;;;;;;;;;;5081160;28;20242;-67
2023/04/12 05:51:54;;;;;;;2.35;2.13;;;;;;;;;;5081389;28;20204;-69
2023/04/12 05:54:21;;;;;;;4.03;2.60;;;;;;;;;;5081534;28;20300;-67
2023/04/12 05:56:47;;;;;;;4.53;2.47;;;;;;;;;;5081407;28;20203;-67
2023/04/12 05:59:13;;;;;;;3.10;2.47;;;;;;;;;;5081132;28;20197;-67
2023/04/12 06:01:41;;;;;;;5.03;2.60;;;;;;;;;;5083606;28;20200;-67
2023/04/12 06:04:09;;;;;;;4.70;2.83;;;;;;;;;;5084815;28;20205;-67
2023/04/12 06:06:35;;;;;;;3.55;2.30;;;;;;;;;;5084903;28;20501;-68
2023/04/12 06:09:03;;;;;;;3.00;2.42;;;;;;;;;;5084590;28;20218;-67
2023/04/12 06:11:30;;;;;;;7.32;2.80;;;;;;;;;;5084704;28;20209;-67
2023/04/12 06:13:56;;;;;;;3.40;2.92;;;;;;;;;;5084626;28;20211;-67
2023/04/12 06:16:23;;;;;;;5.80;2.58;;;;;;;;;;5084627;28;20196;-67
2023/04/12 06:18:49;;;;;;;2.47;2.28;;;;;;;;;;5084477;28;20200;-67
2023/04/12 06:21:18;;;;;;;3.10;2.80;;;;;;;;;;5084488;28;20216;-67
2023/04/12 06:23:44;;;;;;;2.67;2.30;;;;;;;;;;5084731;28;20543;-67
2023/04/12 06:26:10;;;;;;;4.13;2.75;;;;;;;;;;5084448;28;20201;-67
2023/04/12 06:28:37;;;;;;;3.42;3.10;;;;;;;;;;5084192;28;20528;-67
2023/04/12 06:31:03;;;;;;;3.28;2.95;;;;;;;;;;5084340;28;20550;-67
2023/04/12 06:33:29;;;;;;;8.02;2.90;;;;;;;;;;5084305;28;20197;-67
2023/04/12 06:35:56;;;;;;;3.22;2.95;;;;;;;;;;5084348;28;20200;-67
2023/04/12 06:38:23;;;;;;;3.10;2.80;;;;;;;;;;5084475;28;20197;-67
2023/04/12 06:40:50;;;;;;;3.35;2.92;;;;;;;;;;5084091;28;20196;-67
2023/04/12 06:43:17;;;;;;;5.63;3.17;;;;;;;;;;5083989;28;20215;-67
2023/04/12 06:45:44;;;;;;;5.10;3.22;;;;;;;;;;5084099;28;20219;-67
2023/04/12 06:48:11;;;;;;;4.85;3.17;;;;;;;;;;5084198;28;20484;-67
2023/04/12 06:50:37;;;;;;;5.50;2.75;;;;;;;;;;5083878;28;20196;-67
2023/04/12 06:53:03;;;;;;;6.85;2.85;;;;;;;;;;5084327;28;20197;-67
2023/04/12 06:55:31;;;;;;;7.55;2.60;;;;;;;;;;5083854;28;20196;-67
2023/04/12 06:57:57;;;;;;;3.40;3.10;;;;;;;;;;5083938;28;20448;-67
2023/04/12 07:00:24;;;;;;;3.03;2.40;;;;;;;;;;5083732;28;20440;-67
2023/04/12 07:02:50;;;;;;;2.42;2.22;;;;;;;;;;5083948;28;20425;-67
2023/04/12 07:05:16;;;;;;;2.20;2.10;;;;;;;;;;5083890;28;20197;-67
2023/04/12 07:07:44;;;;;;;2.17;2.08;;;;;;;;;;5083860;28;20216;-67
2023/04/12 07:10:10;;;;;;;2.00;1.90;;;;;;;;;;5083591;28;20200;-67
2023/04/12 07:12:38;;;;;;;2.72;1.73;;;;;;;;;;5082275;28;20222;-67
2023/04/12 07:15:05;;;;;;;3.00;1.80;;;;;;;;;;5083589;28;20197;-67
2023/04/12 07:17:31;;;;;;;2.47;1.73;;;;;;;;;;5083667;28;20243;-67
2023/04/12 07:19:57;;;;;;;2.10;1.75;;;;;;;;;;5083706;28;20196;-67
2023/04/12 07:22:24;;;;;;;1.50;1.30;;;;;;;;;;5083273;28;20212;-67
2023/04/12 07:24:50;;;;;;;1.00;1.00;;;;;;;;;;5083366;28;20203;-67
2023/04/12 07:27:16;;;;;;;1.20;1.20;;;;;;;;;;5083112;28;20221;-67
2023/04/12 07:29:44;;;;;;;3.20;1.30;;;;;;;;;;5083172;28;20200;-67
2023/04/12 07:32:10;;;;;;;1.35;1.30;;;;;;;;;;5083062;28;20523;-67
2023/04/12 07:34:38;;;;;;;2.97;1.65;;;;;;;;;;5083019;28;20192;-67
2023/04/12 07:37:05;;;;;;;4.30;1.38;;;;;;;;;;5082899;28;20563;-67
2023/04/12 07:39:31;;;;;;;2.83;1.58;;;;;;;;;;5082994;28;20196;-67
2023/04/12 07:41:57;;;;;;;1.77;1.70;;;;;;;;;;5082757;28;20404;-67
2023/04/12 07:44:24;;;;;;;2.45;1.77;;;;;;;;;;5082980;28;20200;-67
2023/04/12 07:46:51;;;;;;;1.65;1.50;;;;;;;;;;5082972;28;20197;-67
2023/04/12 07:49:18;;;;;;;2.45;2.22;;;;;;;;;;5082786;28;20221;-68
2023/04/12 07:51:44;;;;;;;4.93;2.00;;;;;;;;;;5083154;28;20201;-67
2023/04/12 07:54:12;;;;;;;2.85;1.73;;;;;;;;;;5082697;28;20363;-67
2023/04/12 07:56:38;;;;;;;3.38;2.28;;;;;;;;;;5082805;28;20318;-67
2023/04/12 07:59:04;;;;;;;3.92;1.88;;;;;;;;;;5082988;28;20192;-67
2023/04/12 08:01:31;;;;;;;2.50;1.50;;;;;;;;;;5082741;28;20203;-67
2023/04/12 08:03:58;;;;;;;2.40;1.95;;;;;;;;;;5083075;28;20500;-67
2023/04/12 08:06:25;;;;;;;1.80;1.70;;;;;;;;;;5082642;28;20212;-67
2023/04/12 08:08:51;;;;;;;3.05;1.60;;;;;;;;;;5082597;28;20283;-67
2023/04/12 08:11:17;;;;;;;3.78;1.60;;;;;;;;;;5082496;28;20200;-67
2023/04/12 08:13:44;;;;;;;2.33;2.00;;;;;;;;;;5082702;28;20271;-67
2023/04/12 08:16:11;;;;;;;1.80;1.60;;;;;;;;;;5082531;28;20278;-67
2023/04/12 08:18:37;;;;;;;4.60;1.45;;;;;;;;;;5082617;28;20189;-67
2023/04/12 08:21:05;;;;;;;3.28;1.60;;;;;;;;;;5082257;28;20246;-67
2023/04/12 08:23:32;;;;;;;1.10;1.00;;;;;;;;;;5081908;28;20196;-67
2023/04/12 08:26:02;;;;;;;1.35;1.25;;;;;;;;;;5082066;28;20200;-67
2023/04/12 08:28:28;;;;;;;1.90;1.20;;;;;;;;;;5082019;28;20216;-68
2023/04/12 08:30:55;;;;;;;1.75;1.52;;;;;;;;;;5082148;28;20192;-67
2023/04/12 08:33:21;;;;;;;1.58;1.45;;;;;;;;;;5082108;28;20504;-67
2023/04/12 08:35:48;;;;;;;3.42;1.90;;;;;;;;;;5082137;28;20196;-67
2023/04/12 08:38:15;;;;;;;3.22;1.70;;;;;;;;;;5081921;28;20568;-67
2023/04/12 08:40:42;;;;;;;1.65;1.55;;;;;;;;;;5082415;28;20233;-69
2023/04/12 08:43:11;;;;;;;14.05;8.45;;;;;;;;;;5082072;28;20391;-67
2023/04/12 08:45:37;;;;;;;1.95;1.75;;;;;;;;;;5082205;28;20196;-67
2023/04/12 08:48:05;;;;;;;2.28;1.27;;;;;;;;;;5081876;28;20216;-67
2023/04/12 08:50:31;;;;;;;2.70;1.75;;;;;;;;;;5081636;28;20196;-67
2023/04/12 08:52:58;;;;;;;1.83;1.58;;;;;;;;;;5081999;28;20524;-68
2023/04/12 08:55:25;;;;;;;4.68;1.80;;;;;;;;;;5082049;28;20383;-67
2023/04/12 08:57:53;;;;;;;2.35;1.40;;;;;;;;;;5082254;28;20196;-67
2023/04/12 09:00:20;;;;;;;2.47;1.75;;;;;;;;;;5081817;28;20202;-68
2023/04/12 09:02:47;;;;;;;2.72;1.50;;;;;;;;;;5081795;28;20215;-68
2023/04/12 09:05:14;;;;;;;2.17;1.52;;;;;;;;;;5081523;28;20212;-68
2023/04/12 09:07:40;;;;;;;3.08;1.83;;;;;;;;;;5081843;28;20275;-68
2023/04/12 09:10:07;;;;;;;4.55;1.55;;;;;;;;;;5081628;28;20227;-67
2023/04/12 09:12:35;;;;;;;1.75;1.55;;;;;;;;;;5081448;28;20200;-68
2023/04/12 09:15:08;;;;;;;3.38;2.10;;;;;;;;;;5081563;28;20208;-68
2023/04/12 09:17:35;;;;;;;1.80;1.70;;;;;;;;;;5081505;28;20196;-68
2023/04/12 09:20:02;;;;;;;2.22;1.85;;;;;;;;;;5081537;28;20193;-67
2023/04/12 09:22:33;;;;;;;2.47;1.67;;;;;;;;;;5081496;28;20283;-67
2023/04/12 09:24:59;;;;;;;3.58;1.92;;;;;;;;;;5081770;28;20200;-67
2023/04/12 09:27:27;;;;;;;2.85;2.50;;;;;;;;;;5081512;28;20216;-68
2023/04/12 09:30:06;;;;;;;2.55;2.15;;;;;;;;;;5081467;28;20247;-68
2023/04/12 09:32:32;;;;;;;3.10;2.28;;;;;;;;;;5081593;28;20199;-68
2023/04/12 09:35:00;;;;;;;3.15;2.10;;;;;;;;;;5081761;28;20196;-67
2023/04/12 09:37:26;;;;;;;3.92;1.80;;;;;;;;;;5085364;28;20478;-67
2023/04/12 09:40:00;;;;;;;1.95;1.80;;;;;;;;;;5085371;28;20192;-67
2023/04/12 09:42:27;;;;;;;6.25;4.57;;;;;;;;;;5085343;28;20200;-67
2023/04/12 09:44:53;;;;;;;7.95;5.22;;;;;;;;;;5085680;28;20272;-68
2023/04/12 09:47:21;;;;;;;2.53;2.15;;;;;;;;;;5085288;28;20200;-68
2023/04/12 09:49:47;;;;;;;2.92;1.92;;;;;;;;;;5085097;28;20219;-68
2023/04/12 09:52:14;;;;;;;2.53;1.85;;;;;;;;;;5084925;28;20192;-68
2023/04/12 09:54:42;;;;;;;4.32;1.88;;;;;;;;;;5085064;28;20204;-68
2023/04/12 09:57:09;;;;;;;2.83;2.10;;;;;;;;;;5084817;28;20207;-68
2023/04/12 09:59:36;;;;;;;2.28;2.17;;;;;;;;;;5084684;28;20361;-68
2023/04/12 10:02:03;;;;;;;5.97;2.67;;;;;;;;;;5084823;28;20196;-68
2023/04/12 10:04:32;;;;;;;2.53;1.70;;;;;;;;;;5085070;28;20196;-68
2023/04/12 10:06:59;;;;;;;2.45;1.95;;;;;;;;;;5084985;28;20203;-68
2023/04/12 10:09:27;;;;;;;2.65;2.20;;;;;;;;;;5084653;28;20523;-68
2023/04/12 10:11:53;;;;;;;1.67;1.58;;;;;;;;;;5084414;28;20204;-68
2023/04/12 10:14:21;;;;;;;3.92;2.08;;;;;;;;;;5084582;28;20457;-68
2023/04/12 10:16:48;;;;;;;2.10;1.40;;;;;;;;;;5084797;28;20504;-68
2023/04/12 10:19:15;;;;;;;1.60;1.58;;;;;;;;;;5084495;28;20259;-68
2023/04/12 10:21:42;;;;;;;2.42;1.33;;;;;;;;;;5084361;28;20539;-68
2023/04/12 10:24:09;;;;;;;1.58;1.48;;;;;;;;;;5084421;28;20239;-68
2023/04/12 10:26:35;;;;;;;2.22;1.75;;;;;;;;;;5084539;28;20212;-68
2023/04/12 10:29:22;;;;;;;2.88;1.75;;;;;;;;;;5084363;28;20269;-68
2023/04/12 10:31:48;;;;;;;1.65;1.55;;;;;;;;;;5084534;28;20205;-68
2023/04/12 10:34:15;;;;;;;4.40;1.85;;;;;;;;;;5084357;28;20234;-68
2023/04/12 10:36:53;;;;;;;2.00;1.38;;;;;;;;;;5084407;28;20252;-68
2023/04/12 10:39:34;;;;;;;3.55;1.48;;;;;;;;;;5084449;28;20196;-68
2023/04/12 10:42:21;;;;;;;3.13;1.50;;;;;;;;;;5084215;28;20196;-68
2023/04/12 10:44:48;;;;;;;4.15;1.60;;;;;;;;;;5084047;28;20196;-68
2023/04/12 10:47:15;;;;;;;1.73;1.25;;;;;;;;;;5083889;28;20203;-68
2023/04/12 10:50:01;;;;;;;2.75;1.30;;;;;;;;;;5083977;28;20227;-68
2023/04/12 10:52:28;;;;;;;4.13;1.40;;;;;;;;;;5083700;28;20197;-68
2023/04/12 10:54:55;;;;;;;1.00;1.00;;;;;;;;;;5083776;28;20196;-68
2023/04/12 10:57:40;;;;;;;1.00;1.00;;;;;;;;;;5083822;28;20211;-68
2023/04/12 11:00:07;;;;;;;1.50;1.40;;;;;;;;;;5084016;28;20238;-68
2023/04/12 11:02:35;;;;;;;1.70;0.90;;;;;;;;;;5083762;28;20263;-68
2023/04/12 11:05:07;;;;;;;2.05;1.27;;;;;;;;;;5084086;28;20438;-68
2023/04/12 11:07:40;;;;;;;1.35;0.95;;;;;;;;;;5083598;28;20210;-68
2023/04/12 11:10:12;;;;;;;3.38;1.60;;;;;;;;;;5083962;28;20507;-68
2023/04/12 11:12:39;;;;;;;1.88;1.10;;;;;;;;;;5083407;28;20348;-68
2023/04/12 11:15:06;;;;;;;1.20;1.20;;;;;;;;;;5083484;28;20201;-68
2023/04/12 11:17:32;;;;;;;1.70;0.90;;;;;;;;;;5083486;28;20196;-68
2023/04/12 11:19:59;;;;;;;1.42;1.27;;;;;;;;;;5083563;28;20431;-68
2023/04/12 11:22:26;;;;;;;3.08;1.27;;;;;;;;;;5083167;28;20478;-68
2023/04/12 11:24:54;;;;;;;2.08;1.33;;;;;;;;;;5083101;28;20365;-68
2023/04/12 11:27:22;;;;;;;0.98;0.98;;;;;;;;;;5083270;28;20612;-68
2023/04/12 11:29:49;;;;;;;0.90;0.90;;;;;;;;;;5083093;28;20224;-68
2023/04/12 11:32:15;;;;;;;1.75;1.10;;;;;;;;;;5082900;28;20505;-68
2023/04/12 11:34:43;;;;;;;3.55;1.00;;;;;;;;;;5083098;28;20557;-68
2023/04/12 11:37:09;;;;;;;2.70;0.80;;;;;;;;;;5082862;28;20359;-68
2023/04/12 11:39:37;;;;;;;0.70;0.70;;;;;;;;;;5083373;28;20201;-68
2023/04/12 11:42:07;;;;;;;3.35;1.10;;;;;;;;;;5083132;28;20202;-68
2023/04/12 11:44:34;;;;;;;1.00;0.70;;;;;;;;;;5082965;28;20197;-68
2023/04/12 11:47:01;;;;;;;0.93;0.88;;;;;;;;;;5083020;28;20203;-68
2023/04/12 11:49:27;;;;;;;1.50;0.73;;;;;;;;;;5082624;28;20212;-68
2023/04/12 11:52:00;;;;;;;0.98;0.80;;;;;;;;;;5082437;28;20235;-68
2023/04/12 11:54:28;;;;;;;0.73;0.73;;;;;;;;;;5082575;28;20200;-68
2023/04/12 11:56:56;;;;;;;1.80;0.55;;;;;;;;;;5082908;28;20200;-68
2023/04/12 11:59:30;;;;;;;1.00;1.00;;;;;;;;;;5082146;28;20543;-68
2023/04/12 12:01:56;;;;;;;0.82;0.75;;;;;;;;;;5082462;28;20480;-68
2023/04/12 12:04:22;;;;;;;1.50;0.60;;;;;;;;;;5082293;28;20271;-68
2023/04/12 12:06:48;;;;;;;0.65;0.65;;;;;;;;;;5082594;28;20196;-68
2023/04/12 12:09:15;;;;;;;2.40;0.80;;;;;;;;;;5082454;28;20223;-68
2023/04/12 12:11:41;;;;;;;0.60;0.60;;;;;;;;;;5082292;28;20196;-68
2023/04/12 12:14:07;;;;;;;0.90;0.65;;;;;;;;;;5082256;28;20207;-68
2023/04/12 12:16:35;;;;;;;1.08;0.70;;;;;;;;;;5082361;28;20196;-69
2023/04/12 12:19:03;;;;;;;0.60;0.60;;;;;;;;;;5082134;28;20565;-68
2023/04/12 12:21:30;;;;;;;2.95;0.80;;;;;;;;;;5082304;28;20211;-68
2023/04/12 12:23:57;;;;;;;0.60;0.60;;;;;;;;;;5082445;28;20422;-68
2023/04/12 12:26:24;;;;;;;0.60;0.60;;;;;;;;;;5082492;28;20487;-68
2023/04/12 12:28:51;;;;;;;2.22;0.40;;;;;;;;;;5081926;28;20356;-68
2023/04/12 12:31:18;;;;;;;0.73;0.73;;;;;;;;;;5081943;28;20196;-68
2023/04/12 12:33:46;;;;;;;3.20;0.82;;;;;;;;;;5082237;28;20196;-68
2023/04/12 12:36:13;;;;;;;0.68;0.50;;;;;;;;;;5082429;28;20196;-68
2023/04/12 12:38:41;;;;;;;0.40;0.40;;;;;;;;;;5082105;28;20196;-68
2023/04/12 12:41:14;;;;;;;0.40;0.40;;;;;;;;;;5081855;28;20495;-68
2023/04/12 12:43:43;;;;;;;0.57;0.50;;;;;;;;;;5081874;28;20202;-68
2023/04/12 12:46:09;;;;;;;1.42;0.60;;;;;;;;;;5081769;28;20523;-68
2023/04/12 12:48:38;;;;;;;2.20;0.95;;;;;;;;;;5082137;28;20196;-68
2023/04/12 12:51:06;;;;;;;0.60;0.60;;;;;;;;;;5081847;28;20539;-68
2023/04/12 12:53:32;;;;;;;2.55;0.80;;;;;;;;;;5081816;28;20223;-68
2023/04/12 12:55:58;;;;;;;1.65;0.57;;;;;;;;;;5081976;28;20196;-68
2023/04/12 12:58:25;;;;;;;1.05;0.60;;;;;;;;;;5081876;28;20203;-68
2023/04/12 13:00:51;;;;;;;1.15;0.60;;;;;;;;;;5081925;28;20200;-68
2023/04/12 13:03:17;;;;;;;0.68;0.57;;;;;;;;;;5082146;28;20209;-68
2023/04/12 13:05:43;;;;;;;0.50;0.50;;;;;;;;;;5082209;28;20503;-68
2023/04/12 13:08:11;;;;;;;1.33;0.50;;;;;;;;;;5081895;28;20512;-68
2023/04/12 13:10:37;;;;;;;3.35;0.60;;;;;;;;;;5082802;28;20551;-68
2023/04/12 13:13:03;;;;;;;0.50;0.50;;;;;;;;;;5085553;28;20214;-68
2023/04/12 13:15:30;;;;;;;0.70;0.50;;;;;;;;;;5086269;28;20258;-68
2023/04/12 13:17:56;;;;;;;0.73;0.50;;;;;;;;;;5085934;28;20203;-68
2023/04/12 13:20:22;;;;;;;0.98;0.52;;;;;;;;;;5085867;28;20192;-68
2023/04/12 13:22:50;;;;;;;1.85;0.50;;;;;;;;;;5085575;28;20196;-68
2023/04/12 13:25:18;;;;;;;1.27;0.50;;;;;;;;;;5085723;28;20203;-68
2023/04/12 13:27:44;;;;;;;0.80;0.40;;;;;;;;;;5085374;28;20223;-68
2023/04/12 13:30:11;;;;;;;0.68;0.68;;;;;;;;;;5085623;28;20227;-68
2023/04/12 13:32:37;;;;;;;0.57;0.50;;;;;;;;;;5085516;28;20200;-69
2023/04/12 13:35:04;;;;;;;0.60;0.60;;;;;;;;;;5085800;28;20526;-68
2023/04/12 13:37:30;;;;;;;1.15;0.60;;;;;;;;;;5085472;28;20221;-68
2023/04/12 13:39:57;;;;;;;0.60;0.60;;;;;;;;;;5085346;28;20196;-68
2023/04/12 13:42:24;;;;;;;0.68;0.68;;;;;;;;;;5084911;28;20504;-68
2023/04/12 13:44:50;;;;;;;0.57;0.40;;;;;;;;;;5085602;28;20226;-68
2023/04/12 13:47:17;;;;;;;2.92;0.45;;;;;;;;;;5085610;28;20196;-68
2023/04/12 13:49:43;;;;;;;3.75;0.75;;;;;;;;;;5085491;28;20223;-69
2023/04/12 13:52:10;;;;;;;0.43;0.30;;;;;;;;;;5085165;28;20268;-68
2023/04/12 13:54:36;;;;;;;0.73;0.50;;;;;;;;;;5085803;28;20204;-68
2023/04/12 13:57:03;;;;;;;2.63;0.50;;;;;;;;;;5085240;28;20238;-68
2023/04/12 13:59:31;;;;;;;1.85;0.40;;;;;;;;;;5085504;28;20399;-68
2023/04/12 14:01:57;;;;;;;0.55;0.50;;;;;;;;;;5085314;28;20204;-68
2023/04/12 14:04:23;;;;;;;0.90;0.40;;;;;;;;;;5085442;28;20204;-68
2023/04/12 14:06:50;;;;;;;1.33;0.50;;;;;;;;;;5085368;28;20519;-68
2023/04/12 14:09:23;;;;;;;0.50;0.50;;;;;;;;;;5085300;28;20383;-68
2023/04/12 14:11:49;;;;;;;0.47;0.47;;;;;;;;;;5085262;28;20492;-68
2023/04/12 14:14:15;;;;;;;0.73;0.60;;;;;;;;;;5085243;28;20236;-68
2023/04/12 14:16:43;;;;;;;0.65;0.40;;;;;;;;;;5085078;28;20196;-68
2023/04/12 14:19:10;;;;;;;0.70;0.50;;;;;;;;;;5085128;28;20571;-68
2023/04/12 14:21:36;;;;;;;0.35;0.35;;;;;;;;;;5084381;28;20192;-68
2023/04/12 14:24:02;;;;;;;0.50;0.50;;;;;;;;;;5084867;28;20201;-68
2023/04/12 14:26:29;;;;;;;1.45;1.35;;;;;;;;;;5085317;28;20200;-68
2023/04/12 14:28:55;;;;;;;0.80;0.80;;;;;;;;;;5084979;28;20222;-69
2023/04/12 14:31:21;;;;;;;0.50;0.50;;;;;;;;;;5084762;28;20220;-68
2023/04/12 14:33:49;;;;;;;0.40;0.40;;;;;;;;;;5084999;28;20196;-68
2023/04/12 14:36:15;;;;;;;0.47;0.43;;;;;;;;;;5084740;28;20200;-68
2023/04/12 14:38:42;;;;;;;0.57;0.57;;;;;;;;;;5085202;28;20242;-68
2023/04/12 14:41:09;;;;;;;1.05;0.40;;;;;;;;;;5084727;28;20214;-68
2023/04/12 14:43:35;;;;;;;1.02;0.50;;;;;;;;;;5084701;28;20217;-68